Brady, Montana
Current Conditions -  °F | °C
As of 9:53 PM on Sunday 21 Dec 2014 (Local Time) from KGTF Reporting Station
Clear Clear  
Wind Chill: 24°   Ceiling: Unl
Heat Index: 34°   Visibility: 10mi
Dew Point: 23°   Wind: 15mph
Humidity: 64%   Direction: 270°W
Pressure: 29.69"   Gusts: NA
Location:  48.03°N, 111.85°W
Report Text: KGTF 220453Z 27013KT 10SM CLR 01/M05 A2969 RMK AO2 SLP075 T00111050
Loading
Personal Weather Stations






























Interactive Weather Map New forecast layout! Learn more

10-Day Weather Forecast

Advertisements
Track Severe Weather on mobile